Time;durP1;ratioP1;P1;durP2;ratioP2;P2;SDS_P1;SDS_P2;PMS_P1;PMS_P2;Temp;Humidity;BMP_temperature;BMP_pressure;BME280_temperature;BME280_humidity;BME280_pressure;Samples;Min_cycle;Max_cycle;Signal;HPM_P1;HPM_P2
2022/12/06 00:01:37;;;;;;;15.77;6.50;;;;;;;-1.65;100.00;147263.50;1773766;79;20909;-67
2022/12/06 00:04:07;;;;;;;13.23;6.17;;;;;;;-1.67;100.00;147259.63;1773842;81;20945;-68
2022/12/06 00:06:37;;;;;;;13.63;6.13;;;;;;;-1.68;100.00;147257.06;1773741;79;21497;-68
2022/12/06 00:09:04;;;;;;;14.00;6.37;;;;;;;-1.68;100.00;147255.75;1773947;81;20938;-68
2022/12/06 00:11:33;;;;;;;14.75;6.70;;;;;;;-1.71;100.00;147248.03;1774001;79;21967;-68
2022/12/06 00:14:04;;;;;;;12.77;5.93;;;;;;;-1.71;100.00;147248.03;1774106;81;20846;-68
2022/12/06 00:16:32;;;;;;;15.60;6.73;;;;;;;-1.74;100.00;147242.91;1773917;79;21399;-68
2022/12/06 00:18:59;;;;;;;18.40;6.80;;;;;;;-1.73;100.00;147245.47;1773932;81;20887;-68
2022/12/06 00:21:30;;;;;;;12.87;7.20;;;;;;;-1.74;100.00;147242.91;1774075;81;21485;-67
2022/12/06 00:24:02;;;;;;;14.17;6.33;;;;;;;-1.76;100.00;147236.52;1773889;80;21395;-67
2022/12/06 00:30:48;;;;;;;14.13;6.08;;;;;;;-1.81;100.00;147224.94;1774211;81;20973;-68
2022/12/06 00:33:14;;;;;;;11.03;5.43;;;;;;;-1.84;100.00;147217.22;1774008;81;20859;-68
2022/12/06 00:35:41;;;;;;;11.60;6.07;;;;;;;-1.88;100.00;147208.22;1780640;79;20910;-68
2022/12/06 00:38:08;;;;;;;22.40;6.73;;;;;;;-1.89;100.00;147204.34;1790697;79;21232;-68
2022/12/06 00:40:34;;;;;;;15.83;6.67;;;;;;;-1.90;100.00;147201.77;1790479;80;21050;-68
2022/12/06 00:43:01;;;;;;;14.60;6.60;;;;;;;-1.91;100.00;147200.52;1790662;79;20901;-68
2022/12/06 00:45:28;;;;;;;11.33;6.60;;;;;;;-1.91;100.00;147199.20;1790687;80;20996;-68
2022/12/06 00:47:54;;;;;;;14.60;6.73;;;;;;;-1.92;100.00;147196.64;1790895;80;20838;-67
2022/12/06 00:50:21;;;;;;;14.17;6.20;;;;;;;-1.94;100.00;147191.50;1790692;80;21139;-68
2022/12/06 00:52:47;;;;;;;14.63;7.17;;;;;;;-1.95;100.00;147188.94;1790492;79;20965;-68
2022/12/06 00:55:14;;;;;;;14.00;6.53;;;;;;;-1.98;100.00;147181.23;1790589;78;20877;-68
2022/12/06 00:57:41;;;;;;;13.37;7.07;;;;;;;-1.99;100.00;147178.66;1790600;80;20965;-68
2022/12/06 01:00:10;;;;;;;11.50;6.67;;;;;;;-2.01;100.00;147174.78;1790727;79;20956;-68
2022/12/06 01:02:37;;;;;;;15.20;6.20;;;;;;;-2.02;100.00;147173.53;1790610;80;21402;-68
2022/12/06 01:05:05;;;;;;;12.77;6.43;;;;;;;-2.02;100.00;147173.53;1790615;80;20909;-68
2022/12/06 01:07:32;;;;;;;15.83;6.90;;;;;;;-2.04;100.00;147167.09;1790613;80;21497;-68
2022/12/06 01:10:00;;;;;;;17.03;7.57;;;;;;;-2.07;100.00;147160.69;1790906;79;20928;-68
2022/12/06 01:12:27;;;;;;;16.73;6.47;;;;;;;-2.07;100.00;147160.69;1790642;80;21461;-68
2022/12/06 01:14:54;;;;;;;13.57;7.30;;;;;;;-2.09;100.00;147155.56;1790650;80;21131;-68
2022/12/06 01:17:20;;;;;;;18.70;7.10;;;;;;;-2.09;100.00;147154.25;1790667;79;21350;-68
2022/12/06 01:19:49;;;;;;;15.77;7.10;;;;;;;-2.09;100.00;147155.56;1790640;79;20980;-68
2022/12/06 01:22:15;;;;;;;18.20;6.83;;;;;;;-2.09;100.00;147154.25;1790692;79;21075;-68
2022/12/06 01:24:42;;;;;;;13.83;6.07;;;;;;;-2.11;100.00;147150.37;1790621;80;21414;-68
2022/12/06 01:27:09;;;;;;;14.40;6.73;;;;;;;-2.11;100.00;147150.37;1790627;80;21232;-68
2022/12/06 01:29:36;;;;;;;12.03;5.97;;;;;;;-2.09;100.00;147155.56;1790608;80;20874;-68
2022/12/06 01:32:03;;;;;;;14.40;6.97;;;;;;;-2.08;100.00;147158.12;1790726;78;20960;-68
2022/12/06 01:34:29;;;;;;;14.27;6.13;;;;;;;-2.08;100.00;147158.12;1790496;79;20948;-68
2022/12/06 01:36:56;;;;;;;17.17;6.83;;;;;;;-2.07;100.00;147160.69;1790554;79;20933;-68
2022/12/06 01:39:23;;;;;;;11.60;7.07;;;;;;;-2.05;100.00;147165.83;1790556;80;21249;-68
2022/12/06 01:41:49;;;;;;;11.63;6.00;;;;;;;-2.04;100.00;147168.39;1790472;80;20914;-68
2022/12/06 01:44:46;;;;;;;14.03;6.97;;;;;;;-2.02;100.00;147172.22;1790675;79;20874;-68
2022/12/06 01:47:26;;;;;;;16.33;7.00;;;;;;;-2.04;100.00;147168.39;1790670;79;20992;-67
2022/12/06 01:50:07;;;;;;;12.23;6.90;;;;;;;-2.04;100.00;147168.39;1790855;80;20850;-67
2022/12/06 01:52:42;;;;;;;19.97;7.83;;;;;;;-2.05;100.00;147164.52;1790596;79;21244;-68
2022/12/06 01:55:09;;;;;;;;;;;;;;;-2.08;100.00;147156.81;1793244;79;21490;-68
2022/12/06 01:57:35;;;;;;;15.43;8.40;;;;;;;-2.10;100.00;147152.98;1790524;79;20097;-68
2022/12/06 02:00:03;;;;;;;20.43;8.50;;;;;;;-2.11;100.00;147150.37;1790511;79;20874;-68
2022/12/06 02:02:32;;;;;;;20.83;8.97;;;;;;;-2.13;100.00;147143.98;1770225;80;20909;-67
2022/12/06 02:04:58;;;;;;;19.90;9.00;;;;;;;-2.17;100.00;147134.97;1790558;80;21119;-68
2022/12/06 02:07:30;;;;;;;17.77;7.80;;;;;;;-2.21;100.00;147124.70;1770768;80;20920;-68
2022/12/06 02:09:54;;;;;;;18.83;8.17;;;;;;;-2.26;100.00;147111.87;1789728;79;20877;-68
2022/12/06 02:12:21;;;;;;;17.93;7.93;;;;;;;-2.28;100.00;147106.75;1770823;80;21437;-68
2022/12/06 02:14:50;;;;;;;17.73;7.90;;;;;;;-2.34;100.00;147092.59;1790450;80;20941;-68
2022/12/06 02:17:38;;;;;;;16.53;7.97;;;;;;;-2.36;100.00;147087.47;1790762;80;21080;-68
2022/12/06 02:20:32;;;;;;;15.20;7.97;;;;;;;-2.40;100.00;147078.45;1790571;78;20873;-70
2022/12/06 02:23:23;;;;;;;22.52;9.38;;;;;;;-2.40;100.00;147078.45;1790582;78;20918;-69
2022/12/06 02:26:36;;;;;;;18.63;8.43;;;;;;;-2.40;100.00;147078.45;1790190;79;20989;-68
2022/12/06 02:29:21;;;;;;;15.10;7.97;;;;;;;-2.40;100.00;147078.45;1790573;79;20946;-68
2022/12/06 02:31:56;;;;;;;19.00;7.47;;;;;;;-2.42;100.00;147072.06;1790718;79;21402;-68
2022/12/06 02:34:32;;;;;;;;;;;;;;;-2.45;100.00;147066.88;1793193;79;20913;-68
2022/12/06 02:37:09;;;;;;;15.30;7.13;;;;;;;-2.46;100.00;147063.06;1788640;79;20421;-67
2022/12/06 02:39:51;;;;;;;14.00;6.40;;;;;;;-2.46;100.00;147064.31;1788182;80;21327;-67
2022/12/06 02:42:23;;;;;;;14.70;6.57;;;;;;;-2.45;100.00;147066.88;1788074;79;20917;-67
2022/12/06 02:44:55;;;;;;;22.20;6.57;;;;;;;-2.45;100.00;147065.63;1788052;80;21382;-67
2022/12/06 02:47:29;;;;;;;12.20;6.43;;;;;;;-2.45;100.00;147065.63;1788371;80;20917;-68
2022/12/06 02:49:55;;;;;;;16.53;6.70;;;;;;;-2.46;100.00;147063.06;1788138;80;21469;-67
2022/12/06 02:52:24;;;;;;;15.77;6.93;;;;;;;-2.46;100.00;147063.06;1788029;80;20858;-67
2022/12/06 02:54:51;;;;;;;11.63;6.60;;;;;;;-2.46;100.00;147064.31;1788011;79;20997;-67
2022/12/06 02:57:19;;;;;;;16.50;6.03;;;;;;;-2.45;100.00;147066.88;1788301;79;21141;-67
2022/12/06 02:59:53;;;;;;;20.17;6.50;;;;;;;-2.42;100.00;147072.06;1768267;80;20994;-68
2022/12/06 03:02:20;;;;;;;14.43;6.53;;;;;;;-2.43;100.00;147070.75;1788095;80;20997;-68
2022/12/06 03:05:16;;;;;;;25.53;6.50;;;;;;;-2.40;100.00;147077.20;1787918;78;20933;-68
2022/12/06 03:07:43;;;;;;;12.33;6.17;;;;;;;-2.40;100.00;147078.45;1788099;79;20921;-68
2022/12/06 03:10:42;;;;;;;17.67;7.10;;;;;;;-2.41;100.00;147075.89;1788225;79;21136;-68
2022/12/06 03:13:25;;;;;;;17.83;6.63;;;;;;;-2.39;100.00;147081.03;1788307;79;20973;-68
2022/12/06 03:16:09;;;;;;;14.30;6.80;;;;;;;-2.39;100.00;147081.03;1788051;79;20878;-67
2022/12/06 03:19:04;;;;;;;14.55;5.78;;;;;;;-2.38;100.00;147083.59;1785025;79;20894;-69
2022/12/06 03:21:44;;;;;;;22.17;5.62;;;;;;;-2.35;100.00;147090.03;1788168;80;20929;-69
2022/12/06 03:24:13;;;;;;;20.17;7.13;;;;;;;-2.32;100.00;147097.73;1787917;79;21770;-68
2022/12/06 03:26:41;;;;;;;11.30;6.13;;;;;;;-2.31;100.00;147101.59;1787839;80;20964;-68
2022/12/06 03:29:08;;;;;;;15.37;6.53;;;;;;;-2.29;100.00;147104.17;1787926;79;20988;-68
2022/12/06 03:31:37;;;;;;;16.83;6.23;;;;;;;-2.30;100.00;147102.86;1787866;80;20897;-68
2022/12/06 03:34:24;;;;;;;15.27;6.37;;;;;;;-2.31;100.00;147100.30;1768541;80;21016;-67
2022/12/06 03:36:51;;;;;;;11.67;6.60;;;;;;;-2.30;100.00;147102.86;1780789;79;20906;-67
2022/12/06 03:39:28;;;;;;;11.37;5.20;;;;;;;-2.28;100.00;147108.00;1774014;79;20989;-68
2022/12/06 03:41:57;;;;;;;12.47;5.47;;;;;;;-2.27;100.00;147110.56;1773532;80;20961;-68
2022/12/06 03:44:25;;;;;;;15.73;6.90;;;;;;;-2.28;100.00;147106.75;1773975;79;20922;-67
2022/12/06 03:46:55;;;;;;;15.80;5.73;;;;;;;-2.27;100.00;147109.31;1773999;81;20926;-68
2022/12/06 03:49:45;;;;;;;12.47;5.60;;;;;;;-2.26;100.00;147113.13;1773860;80;21288;-67
2022/12/06 03:52:12;;;;;;;12.53;5.43;;;;;;;-2.23;100.00;147120.83;1773803;81;20931;-68
2022/12/06 03:54:39;;;;;;;14.00;5.70;;;;;;;-2.22;100.00;147122.14;1773768;81;21442;-68
2022/12/06 03:57:06;;;;;;;13.27;5.63;;;;;;;-2.20;100.00;147128.58;1761044;81;20914;-68
2022/12/06 03:59:33;;;;;;;13.30;5.70;;;;;;;-2.17;100.00;147134.97;1774233;81;20878;-67
2022/12/06 04:01:59;;;;;;;13.20;6.07;;;;;;;-2.18;100.00;147133.72;1774107;81;21248;-68
2022/12/06 04:04:26;;;;;;;12.93;5.90;;;;;;;-2.14;100.00;147142.67;1773873;81;20831;-68
2022/12/06 04:06:53;;;;;;;14.63;5.90;;;;;;;-2.11;100.00;147150.37;1774144;81;20982;-68
2022/12/06 04:12:59;;;;;;;16.55;5.80;;;;;;;-2.04;100.00;147168.39;1774177;81;21363;-69
2022/12/06 04:14:38;;;;;;;12.20;5.10;;;;;;;-2.00;100.00;147176.09;1772257;81;21344;-68
2022/12/06 04:19:49;;;;;;;15.55;5.08;;;;;;;-1.97;100.00;147183.80;1774414;81;20973;-68
2022/12/06 04:25:00;;;;;;;11.03;5.22;;;;;;;-1.92;100.00;147196.64;1774274;81;20997;-67
2022/12/06 04:38:45;;;;;;;18.87;5.80;;;;;;;-1.83;100.00;147218.48;1774408;81;20431;-67
2022/12/06 04:41:10;;;;;;;17.17;5.70;;;;;;;-1.81;100.00;147224.94;1773558;80;21110;-67
2022/12/06 04:43:43;;;;;;;15.23;5.20;;;;;;;-1.76;100.00;147236.52;1774096;81;20928;-68
2022/12/06 04:46:11;;;;;;;10.90;4.60;;;;;;;-1.75;100.00;147239.08;1774074;79;20921;-67
2022/12/06 04:48:38;;;;;;;17.10;5.47;;;;;;;-1.74;100.00;147242.91;1773895;79;21025;-67
2022/12/06 04:51:05;;;;;;;9.57;4.47;;;;;;;-1.69;100.00;147253.17;1774188;81;21264;-68
2022/12/06 04:53:32;;;;;;;18.93;5.00;;;;;;;-1.65;100.00;147263.50;1774078;79;21218;-67
2022/12/06 04:56:00;;;;;;;10.27;4.13;;;;;;;-1.58;100.00;147281.47;1773991;81;20887;-68
2022/12/06 04:58:27;;;;;;;13.05;4.78;;;;;;;-1.51;100.00;147299.45;1774157;81;20882;-68
2022/12/06 05:00:54;;;;;;;11.40;4.20;;;;;;;-1.45;100.00;147314.86;1774163;81;20930;-68
2022/12/06 05:03:21;;;;;;;12.93;4.45;;;;;;;-1.35;100.00;147338.03;1774028;81;21386;-67
2022/12/06 05:05:48;;;;;;;14.97;4.63;;;;;;;-1.31;100.00;147348.31;1774012;81;21141;-67
2022/12/06 05:08:15;;;;;;;10.57;4.83;;;;;;;-1.25;100.00;147362.47;1774091;79;21324;-67
2022/12/06 05:10:48;;;;;;;11.65;3.90;;;;;;;-1.21;100.00;147372.73;1774174;79;20846;-67
2022/12/06 05:13:16;;;;;;;12.07;3.70;;;;;;;-1.15;100.00;147388.16;1774368;79;20838;-67
2022/12/06 05:15:51;;;;;;;10.10;3.90;;;;;;;-1.05;100.00;147412.58;1773994;79;20977;-68
2022/12/06 05:18:18;;;;;;;12.35;4.22;;;;;;;-0.96;100.00;147435.75;1773989;79;21151;-68
2022/12/06 05:20:46;;;;;;;9.40;3.77;;;;;;;-0.89;100.00;147453.75;1773932;81;20992;-68
2022/12/06 05:23:13;;;;;;;9.35;3.47;;;;;;;-0.82;100.00;147470.47;1774015;81;20854;-67
2022/12/06 05:25:40;;;;;;;6.53;3.45;;;;;;;-0.73;100.00;147493.59;1773849;81;20930;-67
2022/12/06 05:28:07;;;;;;;10.00;3.50;;;;;;;-0.58;100.00;147530.91;1774254;79;20930;-67
2022/12/06 05:30:34;;;;;;;7.40;3.47;;;;;;;-0.44;100.00;147565.67;1773896;81;22047;-67
2022/12/06 05:33:01;;;;;;;7.20;3.30;;;;;;;-0.33;100.00;147592.69;1773954;79;20922;-68
2022/12/06 05:35:28;;;;;;;6.65;3.22;;;;;;;-0.23;100.00;147617.09;1774148;81;20922;-67
2022/12/06 05:37:54;;;;;;;5.47;2.20;;;;;;;-0.15;100.00;147637.72;1773845;80;20894;-67
2022/12/06 05:40:21;;;;;;;6.03;2.47;;;;;;;-0.03;100.00;147667.31;1774125;79;20898;-67
2022/12/06 05:42:48;;;;;;;6.20;2.37;;;;;;;0.12;100.00;147703.36;1773912;81;21133;-68
2022/12/06 05:45:15;;;;;;;7.75;2.45;;;;;;;0.23;100.00;147731.66;1774070;79;20919;-67
2022/12/06 05:47:42;;;;;;;11.10;2.37;;;;;;;0.33;100.00;147754.81;1773936;81;20950;-68
2022/12/06 05:50:10;;;;;;;3.83;1.80;;;;;;;0.40;100.00;147772.86;1773971;79;20902;-68
2022/12/06 05:52:37;;;;;;;6.72;2.33;;;;;;;0.45;100.00;147784.47;1774055;81;21320;-68
2022/12/06 05:55:05;;;;;;;4.62;2.05;;;;;;;0.50;100.00;147798.59;1774132;79;21228;-68
2022/12/06 05:57:32;;;;;;;3.65;2.10;;;;;;;0.53;100.00;147806.31;1774338;81;21317;-68
2022/12/06 05:59:58;;;;;;;43.80;17.80;;;;;;;0.56;100.00;147814.08;1773985;81;21043;-68
2022/12/06 06:02:25;;;;;;;15.32;7.67;;;;;;;0.61;100.00;147824.37;1773961;79;20954;-68
2022/12/06 06:04:52;;;;;;;11.78;7.42;;;;;;;0.64;100.00;147832.08;1773949;81;20899;-69
2022/12/06 06:07:19;;;;;;;7.97;3.45;;;;;;;0.66;100.00;147837.23;1774105;81;21306;-68
2022/12/06 06:09:45;;;;;;;3.90;2.40;;;;;;;0.68;100.00;147842.38;1773699;81;20953;-68
2022/12/06 06:12:12;;;;;;;6.42;2.35;;;;;;;0.71;100.00;147850.09;1773931;81;20883;-68
2022/12/06 06:14:39;;;;;;;6.03;2.55;;;;;;;0.70;100.00;147848.84;1773805;79;21419;-68
2022/12/06 06:17:06;;;;;;;7.00;1.90;;;;;;;0.72;100.00;147852.67;1774081;81;20855;-68
2022/12/06 06:19:33;;;;;;;5.62;2.20;;;;;;;0.74;100.00;147856.55;1774044;81;21214;-68
2022/12/06 06:22:00;;;;;;;5.28;1.85;;;;;;;0.74;100.00;147856.55;1774134;79;20994;-68
2022/12/06 06:24:27;;;;;;;5.12;1.72;;;;;;;0.75;100.00;147860.39;1773977;79;20917;-68
2022/12/06 06:26:54;;;;;;;4.28;1.67;;;;;;;0.76;100.00;147861.70;1773934;81;20919;-68
2022/12/06 06:29:20;;;;;;;4.33;1.60;;;;;;;0.75;100.00;147860.39;1774067;81;20930;-68
2022/12/06 06:31:47;;;;;;;4.80;1.70;;;;;;;0.76;100.00;147862.97;1773887;81;21466;-68
2022/12/06 06:34:14;;;;;;;2.77;1.60;;;;;;;0.77;100.00;147865.53;1774002;81;20906;-68
2022/12/06 06:36:41;;;;;;;4.08;2.10;;;;;;;0.78;100.00;147868.16;1773902;79;20926;-68
2022/12/06 06:39:07;;;;;;;2.75;1.70;;;;;;;0.79;100.00;147870.73;1773999;81;20922;-67
2022/12/06 06:41:34;;;;;;;6.80;1.77;;;;;;;0.79;100.00;147869.42;1774176;79;20910;-69
2022/12/06 06:44:01;;;;;;;6.10;2.00;;;;;;;0.78;100.00;147866.84;1773993;79;21210;-68
2022/12/06 06:46:28;;;;;;;4.20;2.00;;;;;;;0.79;100.00;147870.73;1773961;81;20973;-67
2022/12/06 06:48:55;;;;;;;3.27;1.67;;;;;;;0.78;100.00;147868.16;1774144;81;21382;-68
2022/12/06 06:51:22;;;;;;;2.87;1.67;;;;;;;0.78;100.00;147868.16;1773980;81;20922;-68
2022/12/06 06:53:48;;;;;;;4.67;1.85;;;;;;;0.78;100.00;147868.16;1773987;79;21434;-68
2022/12/06 06:56:15;;;;;;;5.28;2.00;;;;;;;0.77;100.00;147865.53;1773909;81;21365;-68
2022/12/06 06:58:41;;;;;;;3.50;1.92;;;;;;;0.75;100.00;147860.39;1773849;81;20965;-67
2022/12/06 07:01:16;;;;;;;4.10;1.77;;;;;;;0.75;100.00;147860.39;1773878;79;20994;-67
2022/12/06 07:03:43;;;;;;;5.92;1.55;;;;;;;0.76;100.00;147861.70;1773878;81;21364;-68
2022/12/06 07:06:10;;;;;;;2.72;1.67;;;;;;;0.74;100.00;147857.81;1773981;81;20948;-67
2022/12/06 07:08:38;;;;;;;7.78;1.57;;;;;;;0.71;100.00;147851.41;1773994;79;21231;-67
2022/12/06 07:11:05;;;;;;;3.33;1.62;;;;;;;0.70;100.00;147847.52;1773943;81;20968;-68
2022/12/06 07:13:32;;;;;;;6.45;2.00;;;;;;;0.69;100.00;147844.95;1774112;79;20949;-68
2022/12/06 07:16:02;;;;;;;6.70;1.70;;;;;;;0.69;100.00;147846.25;1773906;81;20929;-69
2022/12/06 07:18:28;;;;;;;4.22;2.05;;;;;;;0.70;100.00;147848.84;1736780;81;21016;-68
2022/12/06 07:21:02;;;;;;;4.87;2.17;;;;;;;0.73;100.00;147853.98;1773832;81;21056;-69
2022/12/06 07:23:31;;;;;;;4.28;2.10;;;;;;;0.73;100.00;147853.98;1773883;79;21379;-69
2022/12/06 07:26:14;;;;;;;5.92;2.35;;;;;;;0.72;100.00;147852.67;1774195;79;21500;-68
2022/12/06 07:28:42;;;;;;;7.67;1.87;;;;;;;0.70;100.00;147847.52;1774028;81;20890;-69
2022/12/06 07:31:21;;;;;;;2.75;1.70;;;;;;;0.69;100.00;147846.25;1773874;81;21008;-69
2022/12/06 07:33:51;;;;;;;3.40;1.98;;;;;;;0.68;100.00;147842.38;1774026;81;22059;-69
2022/12/06 07:36:18;;;;;;;8.45;2.30;;;;;;;0.71;100.00;147850.09;1761638;81;20965;-69
2022/12/06 07:38:50;;;;;;;6.42;1.72;;;;;;;0.73;100.00;147853.98;1773923;79;20851;-70
2022/12/06 07:46:49;;;;;;;2.75;1.57;;;;;;;0.72;100.00;147852.67;1773982;79;21220;-69
2022/12/06 07:49:17;;;;;;;8.48;1.90;;;;;;;0.72;100.00;147852.67;1773814;81;20894;-69
2022/12/06 07:51:44;;;;;;;4.33;1.95;;;;;;;0.70;100.00;147847.52;1774005;79;20910;-69
2022/12/06 07:54:12;;;;;;;3.92;2.00;;;;;;;0.70;100.00;147848.84;1773816;81;20937;-69
2022/12/06 07:56:40;;;;;;;5.40;1.87;;;;;;;0.69;100.00;147844.95;1773927;81;20965;-69
2022/12/06 07:59:07;;;;;;;5.15;1.95;;;;;;;0.72;100.00;147852.67;1773943;79;21383;-69
2022/12/06 08:01:34;;;;;;;4.12;1.55;;;;;;;0.73;100.00;147855.25;1773942;79;20914;-68
2022/12/06 08:04:01;;;;;;;5.10;2.55;;;;;;;0.77;100.00;147864.28;1774058;79;21474;-68
2022/12/06 08:06:30;;;;;;;14.93;2.22;;;;;;;0.82;100.00;147878.45;1773669;79;21527;-67
2022/12/06 08:08:57;;;;;;;5.92;2.20;;;;;;;0.84;100.00;147883.59;1773879;79;20874;-67
2022/12/06 08:11:24;;;;;;;6.22;2.27;;;;;;;0.85;100.00;147886.17;1773849;81;21126;-69
2022/12/06 08:13:51;;;;;;;5.22;2.12;;;;;;;0.86;100.00;147887.44;1773902;81;20922;-69
2022/12/06 08:16:17;;;;;;;7.45;2.25;;;;;;;0.87;100.00;147888.75;1773906;79;20894;-69
2022/12/06 08:18:44;;;;;;;9.73;2.35;;;;;;;0.85;100.00;147884.86;1773993;79;20894;-69
2022/12/06 08:21:11;;;;;;;8.28;2.45;;;;;;;0.85;100.00;147886.17;1774126;81;20993;-69
2022/12/06 08:23:38;;;;;;;7.75;2.42;;;;;;;0.83;100.00;147881.03;1773891;81;21257;-68
2022/12/06 08:26:07;;;;;;;5.72;2.12;;;;;;;0.83;100.00;147881.03;1773924;81;20918;-68
2022/12/06 08:28:35;;;;;;;3.25;1.98;;;;;;;0.86;100.00;147887.44;1774189;79;20862;-69
2022/12/06 08:31:12;;;;;;;4.92;2.33;;;;;;;0.85;100.00;147884.86;1773957;81;21382;-68
2022/12/06 08:33:39;;;;;;;6.35;2.08;;;;;;;0.85;100.00;147886.17;1773811;79;21386;-69
2022/12/06 08:36:09;;;;;;;5.62;1.90;;;;;;;0.87;100.00;147888.75;1773943;79;21256;-69
2022/12/06 08:38:36;;;;;;;4.35;2.02;;;;;;;0.89;100.00;147893.89;1772849;80;20977;-70
2022/12/06 08:41:05;;;;;;;5.50;2.08;;;;;;;0.89;100.00;147895.20;1773909;79;21367;-68
2022/12/06 08:43:31;;;;;;;8.05;2.15;;;;;;;0.91;100.00;147899.03;1774006;81;20961;-67
2022/12/06 08:45:58;;;;;;;5.08;1.92;;;;;;;0.88;100.00;147891.31;1774108;79;21418;-67
2022/12/06 08:48:26;;;;;;;4.47;2.10;;;;;;;0.85;100.00;147886.17;1774104;81;21237;-68
2022/12/06 08:50:53;;;;;;;4.85;2.12;;;;;;;0.83;100.00;147881.03;1773980;81;20986;-68
2022/12/06 08:53:19;;;;;;;7.03;2.08;;;;;;;0.82;100.00;147878.45;1774225;79;21380;-65
2022/12/06 08:55:55;;;;;;;4.75;2.00;;;;;;;0.83;100.00;147879.72;1774110;81;20926;-65
2022/12/06 08:58:23;;;;;;;11.45;2.50;;;;;;;0.85;100.00;147884.86;1774241;79;20917;-65
2022/12/06 09:00:49;;;;;;;7.47;2.70;;;;;;;0.85;100.00;147886.17;1774023;79;21339;-65
2022/12/06 09:03:17;;;;;;;6.47;2.85;;;;;;;0.84;100.00;147883.59;1774005;81;20874;-65
2022/12/06 09:05:44;;;;;;;6.72;2.90;;;;;;;0.83;100.00;147881.03;1774010;81;20957;-65
2022/12/06 09:08:10;;;;;;;5.95;2.22;;;;;;;0.81;100.00;147875.88;1773981;81;21009;-66
2022/12/06 09:10:38;;;;;;;6.58;2.85;;;;;;;0.82;100.00;147878.45;1774074;81;21363;-66
2022/12/06 09:13:04;;;;;;;5.22;2.33;;;;;;;0.80;100.00;147872.00;1773965;81;21143;-66
2022/12/06 09:15:31;;;;;;;8.88;2.60;;;;;;;0.79;100.00;147869.42;1773969;81;20958;-66
2022/12/06 09:17:58;;;;;;;10.10;2.10;;;;;;;0.77;100.00;147865.53;1773991;79;21001;-67
2022/12/06 09:20:25;;;;;;;5.70;2.12;;;;;;;0.77;100.00;147865.53;1773926;81;20913;-66
2022/12/06 09:22:52;;;;;;;4.92;2.00;;;;;;;0.75;100.00;147860.39;1774097;79;20890;-66
2022/12/06 09:25:19;;;;;;;4.15;2.25;;;;;;;0.74;100.00;147857.81;1773936;81;21228;-66
2022/12/06 09:27:46;;;;;;;5.42;2.55;;;;;;;0.74;100.00;147856.55;1773865;81;20985;-66
2022/12/06 09:30:14;;;;;;;3.37;1.52;;;;;;;0.74;100.00;147857.81;1774016;79;21002;-66
2022/12/06 09:32:40;;;;;;;4.58;2.40;;;;;;;0.73;100.00;147855.25;1773944;81;20976;-66
2022/12/06 09:35:08;;;;;;;8.68;2.90;;;;;;;0.72;100.00;147852.67;1774070;79;20902;-66
2022/12/06 09:37:35;;;;;;;4.45;2.08;;;;;;;0.70;100.00;147847.52;1773932;80;21215;-66
2022/12/06 09:40:02;;;;;;;4.80;2.25;;;;;;;0.67;100.00;147839.81;1773856;79;21005;-66
2022/12/06 09:43:05;;;;;;;8.43;2.55;;;;;;;0.66;100.00;147837.23;1773946;81;21423;-66
2022/12/06 09:46:05;;;;;;;5.42;2.77;;;;;;;0.64;100.00;147832.08;1773719;80;20950;-66
2022/12/06 09:48:41;;;;;;;11.00;2.72;;;;;;;0.62;100.00;147826.94;1773573;80;20961;-66
2022/12/06 09:51:27;;;;;;;5.62;2.85;;;;;;;0.59;100.00;147819.22;1774379;81;21210;-67
2022/12/06 09:54:17;;;;;;;10.68;2.83;;;;;;;0.58;100.00;147816.64;1773886;80;20934;-65
2022/12/06 09:57:07;;;;;;;9.75;3.00;;;;;;;0.58;100.00;147816.64;1773566;80;21012;-64
2022/12/06 10:00:03;;;;;;;9.18;3.05;;;;;;;0.58;100.00;147816.64;1774371;79;21316;-66
2022/12/06 10:02:40;;;;;;;7.45;3.25;;;;;;;0.59;100.00;147819.22;1773518;80;20918;-66
2022/12/06 10:05:34;;;;;;;9.40;2.60;;;;;;;0.61;100.00;147824.37;1773957;80;21245;-65
2022/12/06 10:08:27;;;;;;;6.15;3.22;;;;;;;0.60;100.00;147821.78;1773858;80;20985;-66
2022/12/06 10:11:15;;;;;;;9.18;2.90;;;;;;;0.62;100.00;147826.94;1774076;79;21344;-65
2022/12/06 10:14:08;;;;;;;7.20;2.50;;;;;;;0.63;100.00;147830.78;1773964;79;20949;-65
2022/12/06 10:16:47;;;;;;;5.33;2.72;;;;;;;0.62;100.00;147826.94;1773894;79;20863;-65
2022/12/06 10:19:41;;;;;;;5.37;3.08;;;;;;;0.63;100.00;147830.78;1773881;79;21231;-64
2022/12/06 10:22:32;;;;;;;4.95;2.60;;;;;;;0.64;100.00;147832.08;1773403;80;21068;-65
2022/12/06 10:25:07;;;;;;;6.90;2.80;;;;;;;0.66;100.00;147838.55;1773195;80;20962;-65
2022/12/06 10:27:46;;;;;;;6.83;2.85;;;;;;;0.67;100.00;147841.11;1773989;81;20847;-66
2022/12/06 10:30:14;;;;;;;6.05;2.45;;;;;;;0.68;100.00;147843.69;1773994;79;20870;-66
